Blue Grass Airport Lexington US
ICAO: KLEX
IATA: LEX
Category: Large
Scheduled Services: Yes

Elevation: 979 ft
TransAlt. 18000 ft.

Airport Communications:
LEXINGTON APP/DEP:120.15
ATIS:126.3
CLNC DEL:132.35
GND:121.9
LEXINGTON TWR:119.1
UNICOM:122.95

KLEX Zoom In..

If Map Doesn't Load, Click Here

Runways:

(A) RW 04 length 7004 ft width 150 ft
ILS 110.10 / hdg 46

(B) RW 09 length 4000 ft width 75 ft
---- / hdg 87

(C) RW 22 length 7004 ft width 150 ft
ILS 111.75 / hdg 226

(D) RW 27 length 4000 ft width 75 ft
---- / hdg 267

Location; KLEX
Day. 26 / Time. 09.54 Zulu
* Altimeter: 29.99
* Temperature: 23° c. 73.4°f.
* Wind from: 220° Speed 07 kn.
Dewpoint: 21° c.
Visibility: 10 Statute Miles.
Clouds: Scattered 900 ft.
Clouds: Broken 1400 ft.
Clouds: Overcast 8500 ft.

KLEX 260954Z 22007KT 10SM SCT009 BKN014 OVC085 23/21 A2999 RMK AO2 RAB24E35 SLP146 P0000 T02280211


Wind From 220°
Speed 07 kn.

 
 
jpsmedia.com for Web Design worldairports.se 2018   terms of use